NCAR-RAP Real-Time Weather Data

Output produced by METARs form (17 September 2019  16:32 UTC)
found at http://weather.rap.ucar.edu/surface/
 
KBZN 171556Z 18004KT 10SM BKN070 OVC085 14/07 A2986 RMK AO2 SLP081 T01440072
KBZN 171456Z 19005KT 10SM OVC100 14/06 A2983 RMK AO2 SLP072 T01390061 53016
KBZN 171356Z 23004KT 10SM FEW080 BKN110 12/09 A2981 RMK AO2 SLP071 T01220094
KBZN 171256Z 00000KT 10SM SCT100 12/09 A2979 RMK AO2 SLP057 T01170089
KBZN 171156Z 07005KT 10SM OVC110 11/09 A2978 RMK AO2 SLP050 60005 70005 T01110089 10161 20111 53007
KBZN 171056Z 29005KT 10SM CLR 13/08 A2976 RMK AO2 SLP035 T01280083
KBZN 170956Z AUTO 28005KT 10SM CLR 13/09 A2974 RMK AO2 SLP029 T01280089
KBZN 170856Z AUTO 16008KT 10SM CLR 15/08 A2975 RMK AO2 PK WND 13026/0804 WSHFT 0754 RAB03E15 SLP029 P0000 60005 T01500078 56016
KBZN 170814Z AUTO 13015KT 10SM -RA FEW050 FEW065 SCT095 14/08 A2975 RMK AO2 PK WND 13026/0804 WSHFT 0754 RAB03 P0000 T01390083
KBZN 170756Z AUTO 18020G25KT 10SM SCT095 13/09 A2979 RMK AO2 SLP044 T01330094
KBZN 170656Z 07013G23KT 10SM FEW028 SCT070 13/09 A2974 RMK AO2 PK WND 23029/0559 WSHFT 0548 RAB00E52 TSE11 SLP026 P0005 T01280094 403060089
KBZN 170642Z 06017G22KT 8SM -RA FEW017 BKN035 OVC070 13/09 A2973 RMK AO2 PK WND 23029/0559 WSHFT 0548 LTG DSNT NE RAB00 TSE11 P0005 T01280094
KBZN 170617Z 20006KT 10SM VCTS -RA FEW050 BKN065 OVC090 14/09 A2983 RMK AO2 PK WND 23029/0559 WSHFT 0548 LTG DSNT ALQDS RAB00 TSE11 P0002 T01440089
KBZN 170608Z 22014G29KT 6SM TSRA SCT065 BKN095 14/09 A2983 RMK AO2 PK WND 23029/0559 WSHFT 0548 LTG DSNT ALQDS RAB00 PRESRR P0002 T01440089
KBZN 170556Z 21018G24KT 10SM TS BKN100 16/08 A2981 RMK AO2 LTG DSNT SE AND S TSB51 PRESRR SLP048 T01610078 10228 20133 53022
KBZN 170545Z 19007KT 10SM VCTS FEW110 14/08 A2977 RMK AO2 LTG DSNT S AND SW T01390078
KBZN 170456Z 15008KT 10SM CLR 16/07 A2975 RMK AO2 SLP036 T01610072
KBZN 170356Z 15007KT 10SM CLR 18/08 A2975 RMK AO2 WSHFT 0327 SLP038 T01780078
KBZN 170347Z 15012KT 10SM FEW090 19/07 A2975 RMK AO2 WSHFT 0327 T01940067
KBZN 170256Z 14015KT 10SM SCT120 18/08 A2973 RMK AO2 PK WND 14026/0159 LTG DSNT S SLP040 T01780078 50001
KBZN 170056Z 15014KT 10SM BKN100 21/06 A2976 RMK AO2 PK WND 18036/0008 SLP047 T02110061
KBZN 162356Z 17025G33KT 10SM BKN120 23/06 A2973 RMK AO2 PK WND 17033/2354 PRESRR SLP033 T02280061 10306 20228 53004
KBZN 162256Z 18009KT 10SM CLR 28/01 A2969 RMK AO2 SLP013 T02780011
KBZN 162156Z 22012G23KT 10SM CLR 28/M01 A2971 RMK AO2 PK WND 21027/2139 SLP019 T02831006
KBZN 162056Z 22014KT 10SM CLR 29/M01 A2972 RMK AO2 SLP018 T02891006 56016